Time;durP1;ratioP1;P1;durP2;ratioP2;P2;SDS_P1;SDS_P2;PMS_P1;PMS_P2;Temp;Humidity;BMP_temperature;BMP_pressure;BME280_temperature;BME280_humidity;BME280_pressure;Samples;Min_cycle;Max_cycle;Signal;HPM_P1;HPM_P2
2021/01/26 00:00:11;;;;;;;32.60;16.25;;;;;;;-0.97;83.81;97728.38;249703;1148;22939;-72
2021/01/26 00:05:15;;;;;;;36.77;18.40;;;;;;;-1.06;84.22;97720.10;249587;1148;22982;-74
2021/01/26 00:10:18;;;;;;;37.60;18.33;;;;;;;-1.19;83.61;97720.41;249846;1148;22967;-71
2021/01/26 00:15:20;;;;;;;35.70;16.83;;;;;;;-1.33;83.85;97735.67;249782;1148;23363;-73
2021/01/26 00:20:22;;;;;;;27.30;14.30;;;;;;;-1.35;84.28;97743.00;249901;1148;22970;-74
2021/01/26 00:25:31;;;;;;;28.37;14.33;;;;;;;-1.43;84.21;97746.80;249636;1148;22973;-73
2021/01/26 00:30:36;;;;;;;28.52;14.15;;;;;;;-1.45;84.02;97751.50;249708;1148;22890;-73
2021/01/26 00:35:39;;;;;;;25.37;12.47;;;;;;;-1.49;83.46;97750.38;249903;1148;22956;-73
2021/01/26 00:40:42;;;;;;;30.53;14.93;;;;;;;-1.48;84.55;97750.14;250090;1148;23025;-73
2021/01/26 00:45:44;;;;;;;29.45;15.85;;;;;;;-1.37;84.80;97761.63;249603;1148;22963;-74
2021/01/26 00:50:46;;;;;;;23.35;12.40;;;;;;;-1.33;84.82;97760.13;249604;1148;22938;-72
2021/01/26 00:55:49;;;;;;;26.63;12.87;;;;;;;-1.40;84.58;97760.27;249666;1148;22964;-73
2021/01/26 01:00:51;;;;;;;24.73;12.87;;;;;;;-1.45;84.41;97757.54;249586;1147;23056;-73
2021/01/26 01:05:56;;;;;;;22.23;11.97;;;;;;;-1.51;84.41;97765.55;249690;1148;22948;-72
2021/01/26 01:10:58;;;;;;;24.10;11.60;;;;;;;-1.57;84.33;97760.23;249585;1148;22973;-73
2021/01/26 01:16:00;;;;;;;18.47;10.07;;;;;;;-1.67;84.28;97757.39;249628;1148;22950;-72
2021/01/26 01:21:02;;;;;;;32.83;14.37;;;;;;;-1.74;84.53;97759.36;249494;1148;22942;-73
2021/01/26 01:26:04;;;;;;;22.75;11.70;;;;;;;-1.76;84.58;97754.34;249583;1148;23048;-73
2021/01/26 01:31:06;;;;;;;21.90;11.60;;;;;;;-1.83;85.01;97758.12;249600;1148;22939;-72
2021/01/26 01:36:08;;;;;;;31.30;14.30;;;;;;;-1.80;84.84;97761.09;249574;1148;23020;-74
2021/01/26 01:41:10;;;;;;;17.30;9.40;;;;;;;-1.67;85.18;97762.64;249346;1148;23058;-73
2021/01/26 01:46:19;;;;;;;21.00;10.07;;;;;;;-1.68;84.96;97750.53;249432;1148;22970;-73
2021/01/26 01:51:24;;;;;;;25.50;12.10;;;;;;;-1.72;84.94;97747.59;249608;1148;26123;-71
2021/01/26 01:56:29;;;;;;;23.20;12.67;;;;;;;-1.65;85.47;97755.34;249656;1148;22969;-73
2021/01/26 02:01:31;;;;;;;21.97;11.93;;;;;;;-1.52;85.54;97763.98;249475;1147;22946;-73
2021/01/26 02:06:36;;;;;;;19.83;11.23;;;;;;;-1.49;84.86;97764.30;249844;1147;22956;-73
2021/01/26 02:11:39;;;;;;;25.63;13.80;;;;;;;-1.40;85.89;97762.90;249918;1148;27189;-73
2021/01/26 02:17:19;;;;;;;22.47;10.97;;;;;;;-1.33;85.24;97767.20;249606;1148;22910;-73
2021/01/26 02:22:50;;;;;;;25.05;12.00;;;;;;;-1.25;86.09;97778.12;249542;1148;22937;-72
2021/01/26 02:28:20;;;;;;;20.87;10.80;;;;;;;-1.21;85.69;97781.09;249359;1148;22949;-73
2021/01/26 02:34:09;;;;;;;19.62;10.08;;;;;;;-1.18;85.12;97783.23;249330;1148;27695;-70
2021/01/26 02:39:31;;;;;;;21.57;10.93;;;;;;;-1.12;85.40;97794.64;249818;1148;23106;-74
2021/01/26 02:44:47;;;;;;;21.13;10.13;;;;;;;-1.07;85.96;97786.84;249693;1148;22999;-72
2021/01/26 02:49:53;;;;;;;17.25;9.90;;;;;;;-1.06;85.04;97786.61;249783;1148;24680;-73
2021/01/26 02:55:04;;;;;;;22.20;12.07;;;;;;;-1.12;85.57;97802.52;249766;1148;23092;-72
2021/01/26 03:00:24;;;;;;;20.30;10.87;;;;;;;-1.11;85.43;97806.75;249728;1148;23054;-73
2021/01/26 03:05:46;;;;;;;20.05;10.00;;;;;;;-1.11;85.47;97806.75;249575;1148;22945;-71
2021/01/26 03:10:56;;;;;;;24.50;11.57;;;;;;;-1.10;85.96;97816.24;249645;1148;22948;-73
2021/01/26 03:16:04;;;;;;;20.88;10.82;;;;;;;-1.03;85.80;97822.14;249613;1148;22950;-73
2021/01/26 03:21:09;;;;;;;20.70;10.23;;;;;;;-0.95;86.02;97821.77;249545;1148;22967;-73
2021/01/26 03:26:17;;;;;;;15.20;7.80;;;;;;;-0.96;85.67;97820.16;249491;1148;22958;-72
2021/01/26 03:31:28;;;;;;;19.67;9.53;;;;;;;-1.02;84.76;97825.56;249989;1147;24596;-71
2021/01/26 03:36:30;;;;;;;19.47;11.60;;;;;;;-1.10;84.52;97832.80;249810;1148;22947;-72
2021/01/26 03:41:33;;;;;;;20.00;10.93;;;;;;;-1.21;84.94;97837.06;249648;1148;22946;-73
2021/01/26 03:46:43;;;;;;;20.00;10.45;;;;;;;-1.30;84.93;97837.67;249659;1148;24599;-71
2021/01/26 03:52:08;;;;;;;20.35;9.70;;;;;;;-1.34;85.94;97821.59;249696;1148;22938;-70
2021/01/26 03:57:32;;;;;;;16.80;9.37;;;;;;;-1.40;85.10;97831.20;249546;1148;22947;-72
2021/01/26 04:03:13;;;;;;;22.63;10.87;;;;;;;-1.41;85.60;97834.07;249683;1147;23078;-72
2021/01/26 04:08:19;;;;;;;18.40;9.75;;;;;;;-1.42;85.99;97832.47;249602;1148;22967;-73
2021/01/26 04:13:28;;;;;;;19.53;10.10;;;;;;;-1.39;86.08;97840.66;249899;1147;23061;-73
2021/01/26 04:18:42;;;;;;;18.25;9.70;;;;;;;-1.37;86.12;97845.71;249650;1148;22944;-73
2021/01/26 04:23:45;;;;;;;18.93;9.90;;;;;;;-1.35;86.31;97846.27;249593;1148;26361;-73
2021/01/26 04:28:50;;;;;;;18.40;9.25;;;;;;;-1.27;86.11;97835.38;249553;1148;22936;-75
2021/01/26 04:33:52;;;;;;;20.83;10.67;;;;;;;-1.14;85.88;97844.81;249501;1148;22971;-73
2021/01/26 04:38:54;;;;;;;16.07;9.00;;;;;;;-1.02;86.30;97846.59;249676;1148;22967;-73
2021/01/26 04:44:03;;;;;;;17.70;9.90;;;;;;;-1.02;85.87;97852.67;249641;1148;22963;-71
2021/01/26 04:49:26;;;;;;;19.90;10.50;;;;;;;-1.00;86.41;97863.73;249522;1148;22942;-73
2021/01/26 04:54:56;;;;;;;16.60;9.30;;;;;;;-0.95;85.79;97861.20;249735;1148;22958;-74
2021/01/26 05:00:28;;;;;;;19.48;10.48;;;;;;;-0.95;85.36;97874.34;249444;1148;22936;-75
2021/01/26 05:05:34;;;;;;;21.53;11.00;;;;;;;-0.97;85.71;97879.03;249625;1148;22945;-73
2021/01/26 05:10:47;;;;;;;20.55;10.90;;;;;;;-0.99;86.38;97873.22;249498;1148;22964;-72
2021/01/26 05:16:00;;;;;;;23.17;11.13;;;;;;;-0.99;85.74;97875.84;249717;1148;23358;-74
2021/01/26 05:21:10;;;;;;;22.60;10.50;;;;;;;-0.97;86.37;97886.12;249637;1148;23807;-74
2021/01/26 05:26:12;;;;;;;25.63;13.00;;;;;;;-0.92;86.15;97887.02;249647;1148;23458;-72
2021/01/26 05:31:26;;;;;;;21.87;11.67;;;;;;;-0.86;86.34;97899.21;249516;1148;23028;-72
2021/01/26 05:36:29;;;;;;;22.67;12.47;;;;;;;-0.80;86.38;97905.36;249757;1148;25108;-72
2021/01/26 05:41:31;;;;;;;22.53;12.13;;;;;;;-0.74;85.76;97914.14;249524;1148;23400;-74
2021/01/26 05:46:43;;;;;;;24.53;12.73;;;;;;;-0.65;85.99;97911.95;249461;1148;23029;-73
2021/01/26 05:51:53;;;;;;;15.70;8.10;;;;;;;-0.65;85.90;97902.22;249462;1148;23103;-74
2021/01/26 05:56:56;;;;;;;22.75;12.85;;;;;;;-0.63;85.51;97909.87;249714;1148;23041;-71
2021/01/26 06:02:20;;;;;;;18.10;11.30;;;;;;;-0.64;86.54;97911.71;249632;1148;24888;-73
2021/01/26 06:07:26;;;;;;;17.43;9.90;;;;;;;-0.65;86.31;97927.73;249567;1148;27682;-73
2021/01/26 06:12:30;;;;;;;16.60;9.20;;;;;;;-0.68;86.06;97936.89;249799;1147;25970;-73
2021/01/26 06:17:34;;;;;;;20.50;11.83;;;;;;;-0.69;85.76;97937.91;249843;1147;22967;-71
2021/01/26 06:22:37;;;;;;;18.23;10.43;;;;;;;-0.69;86.28;97951.06;249711;1147;22905;-73
2021/01/26 06:27:51;;;;;;;19.73;11.43;;;;;;;-0.67;85.87;97945.56;249493;1148;23106;-73
2021/01/26 06:33:23;;;;;;;21.30;10.93;;;;;;;-0.65;85.93;97956.67;249866;1148;23077;-74
2021/01/26 06:38:31;;;;;;;19.27;10.37;;;;;;;-0.65;86.01;97960.09;249926;1148;22963;-73
2021/01/26 06:43:53;;;;;;;16.00;8.30;;;;;;;-0.62;85.56;97953.56;249603;1148;23025;-73
2021/01/26 06:49:23;;;;;;;16.00;9.70;;;;;;;-0.61;86.01;97961.22;249814;1147;22946;-72
2021/01/26 06:54:50;;;;;;;19.63;11.50;;;;;;;-0.59;85.61;97961.80;249714;1148;22965;-73
2021/01/26 07:00:25;;;;;;;15.93;8.90;;;;;;;-0.52;85.34;97975.59;250147;1145;24010;-74
2021/01/26 07:05:51;;;;;;;21.20;10.17;;;;;;;-0.47;85.67;97979.36;250585;1147;23148;-73
2021/01/26 07:11:12;;;;;;;21.73;9.83;;;;;;;-0.42;85.03;97982.06;250450;1147;23090;-73
2021/01/26 07:16:48;;;;;;;16.00;10.15;;;;;;;-0.36;85.26;97987.19;250190;1147;22923;-73
2021/01/26 07:22:04;;;;;;;16.30;8.33;;;;;;;-0.27;84.71;97989.44;249974;1148;22998;-72
2021/01/26 07:27:37;;;;;;;20.97;10.60;;;;;;;-0.21;85.26;97994.56;250029;1148;23011;-72
2021/01/26 07:33:18;;;;;;;19.53;10.13;;;;;;;-0.07;84.40;97995.05;250048;1146;22958;-74
2021/01/26 07:38:25;;;;;;;20.87;11.63;;;;;;;0.02;84.19;98002.57;250120;1148;24726;-73
2021/01/26 07:43:46;;;;;;;22.20;12.30;;;;;;;-0.03;84.95;98001.45;250620;1145;22945;-73
2021/01/26 07:49:12;;;;;;;19.47;11.37;;;;;;;0.05;84.67;98005.50;250096;1148;23340;-72
2021/01/26 07:54:32;;;;;;;18.57;9.40;;;;;;;0.21;85.11;98008.38;249890;1147;25818;-75
2021/01/26 07:59:44;;;;;;;20.70;11.27;;;;;;;0.24;84.29;98019.25;249832;1147;22899;-72
2021/01/26 08:04:47;;;;;;;17.50;10.80;;;;;;;0.36;84.54;98011.25;250468;1147;23019;-72
2021/01/26 08:09:52;;;;;;;16.97;9.73;;;;;;;0.43;83.05;98013.73;250500;1147;22964;-75
2021/01/26 08:15:08;;;;;;;20.15;10.95;;;;;;;0.40;83.19;98016.86;250506;1148;28912;-74
2021/01/26 08:20:23;;;;;;;22.80;11.60;;;;;;;0.58;84.16;98013.17;250011;1148;22933;-75
2021/01/26 08:25:32;;;;;;;17.33;10.50;;;;;;;0.62;83.75;98016.92;250393;1147;29559;-75
2021/01/26 08:30:56;;;;;;;19.20;9.47;;;;;;;0.72;83.72;98027.60;250688;1147;26005;-75
2021/01/26 08:36:32;;;;;;;16.65;9.00;;;;;;;0.77;82.13;98027.69;250319;1147;23022;-75
2021/01/26 08:41:43;;;;;;;16.75;10.30;;;;;;;0.80;83.22;98031.68;250129;1147;22942;-75
2021/01/26 08:46:47;;;;;;;14.90;8.90;;;;;;;0.92;82.82;98036.84;251582;1148;23443;-76
2021/01/26 08:51:51;;;;;;;14.10;8.87;;;;;;;0.94;82.98;98045.31;249938;1148;23018;-74
2021/01/26 08:56:53;;;;;;;15.47;8.83;;;;;;;1.18;82.41;98053.80;250243;1148;22942;-76
2021/01/26 09:01:56;;;;;;;14.70;8.33;;;;;;;1.46;82.77;98059.95;249982;1147;26776;-73
2021/01/26 09:06:59;;;;;;;16.00;9.47;;;;;;;1.49;81.46;98046.25;250329;1147;22972;-74
2021/01/26 09:12:05;;;;;;;12.77;8.43;;;;;;;1.54;82.00;98054.23;250117;1148;23026;-72
2021/01/26 09:17:25;;;;;;;11.30;7.77;;;;;;;1.45;81.16;98060.98;251543;1147;22961;-73
2021/01/26 09:22:29;;;;;;;;;;;;;;;1.31;80.92;98068.47;249919;1148;23067;-72
2021/01/26 09:27:34;;;;;;;12.50;8.00;;;;;;;1.39;81.44;98067.26;250324;1148;21667;-74
2021/01/26 09:32:38;;;;;;;13.60;7.87;;;;;;;1.60;81.26;98063.80;249993;1148;23101;-73
2021/01/26 09:37:40;;;;;;;11.87;7.60;;;;;;;1.65;80.89;98069.14;250325;1147;23719;-72
2021/01/26 09:42:43;;;;;;;12.67;7.40;;;;;;;1.70;80.12;98084.23;249965;1148;22966;-74
2021/01/26 09:47:48;;;;;;;13.77;8.60;;;;;;;1.70;80.33;98073.67;249944;1147;22995;-75
2021/01/26 09:52:56;;;;;;;12.93;7.90;;;;;;;1.87;80.99;98077.05;250025;1148;22954;-74
2021/01/26 09:57:59;;;;;;;14.55;7.75;;;;;;;2.18;80.16;98069.41;250028;1147;22983;-75
2021/01/26 10:03:02;;;;;;;14.67;8.53;;;;;;;2.11;77.72;98074.08;249961;1148;23374;-73
2021/01/26 10:08:32;;;;;;;14.37;9.10;;;;;;;1.99;79.14;98076.89;250544;1147;22932;-73
2021/01/26 10:13:36;;;;;;;10.88;7.33;;;;;;;1.95;78.35;98085.56;250544;1147;23396;-75
2021/01/26 10:18:41;;;;;;;10.87;7.20;;;;;;;1.85;77.89;98081.76;250500;1148;23081;-75
2021/01/26 10:23:44;;;;;;;10.80;7.70;;;;;;;1.75;78.63;98094.05;250343;1147;23051;-74
2021/01/26 10:28:58;;;;;;;10.13;6.47;;;;;;;1.85;77.53;98104.74;251520;1148;22950;-75
2021/01/26 10:34:00;;;;;;;12.83;8.00;;;;;;;1.77;76.99;98092.77;250223;1147;22932;-76
2021/01/26 10:47:39;;;;;;;14.17;8.47;;;;;;;1.47;78.45;98109.03;250574;1147;23497;-71
2021/01/26 10:52:41;;;;;;;10.33;6.13;;;;;;;1.52;77.49;98099.33;252031;1148;24723;-77
2021/01/26 10:57:45;;;;;;;11.10;7.03;;;;;;;1.46;78.42;98110.88;250634;1149;26145;-79
2021/01/26 11:02:49;;;;;;;13.97;8.30;;;;;;;1.47;78.30;98120.41;254839;1150;22921;-79
2021/01/26 11:07:51;;;;;;;10.93;7.23;;;;;;;1.52;78.59;98111.75;250611;1150;22975;-79
2021/01/26 11:12:55;;;;;;;10.60;7.27;;;;;;;1.48;78.70;98111.45;250348;1151;22988;-77
2021/01/26 11:17:57;;;;;;;10.67;6.90;;;;;;;1.45;79.44;98105.85;249101;1142;28498;-72
2021/01/26 11:23:00;;;;;;;10.27;6.37;;;;;;;1.39;78.76;98106.84;249673;1151;23067;-75
2021/01/26 11:28:04;;;;;;;11.23;7.87;;;;;;;1.37;79.14;98112.34;249726;1151;23106;-74
2021/01/26 11:33:07;;;;;;;14.17;9.30;;;;;;;1.23;78.49;98103.98;249616;1151;23007;-75
2021/01/26 11:38:09;;;;;;;15.60;10.60;;;;;;;1.25;79.56;98104.55;249407;1151;25970;-73
2021/01/26 11:43:12;;;;;;;16.33;10.87;;;;;;;1.38;78.69;98102.59;249424;1151;22992;-75
2021/01/26 11:48:14;;;;;;;16.90;10.55;;;;;;;1.34;79.31;98103.09;249256;1151;23025;-74
2021/01/26 11:53:17;;;;;;;15.17;10.70;;;;;;;1.25;78.79;98095.84;249260;1151;23024;-73
2021/01/26 11:58:19;;;;;;;13.63;9.73;;;;;;;1.14;78.96;98100.17;249590;1151;23261;-74
2021/01/26 12:03:22;;;;;;;14.90;8.87;;;;;;;1.12;79.10;98095.15;249320;1151;23096;-73
2021/01/26 12:08:24;;;;;;;14.17;7.73;;;;;;;1.31;80.43;98097.50;249502;1154;23106;-76
2021/01/26 12:13:28;;;;;;;13.00;8.20;;;;;;;1.42;78.98;98093.94;249045;1153;23039;-73
2021/01/26 12:18:31;;;;;;;12.90;7.50;;;;;;;1.53;79.36;98094.87;249349;1151;22986;-73
2021/01/26 12:23:35;;;;;;;15.37;9.10;;;;;;;1.55;79.13;98090.13;249435;1151;22991;-73
2021/01/26 12:28:37;;;;;;;10.40;7.40;;;;;;;1.61;78.77;98090.98;249225;1151;22934;-73
2021/01/26 12:33:39;;;;;;;13.07;8.07;;;;;;;1.71;78.97;98080.56;249242;1151;22932;-73
2021/01/26 12:38:41;;;;;;;16.10;9.50;;;;;;;1.69;78.90;98080.81;249107;1151;23008;-73
2021/01/26 12:43:43;;;;;;;20.05;11.60;;;;;;;1.65;78.12;98086.81;249311;1151;22878;-73
2021/01/26 12:48:45;;;;;;;16.57;11.37;;;;;;;1.68;79.65;98089.77;249291;1151;22967;-78
2021/01/26 12:53:47;;;;;;;14.77;9.50;;;;;;;1.83;78.68;98088.33;249512;1151;23364;-67
2021/01/26 12:58:49;;;;;;;14.27;8.97;;;;;;;1.87;77.71;98082.33;249183;1151;22964;-72
2021/01/26 13:03:53;;;;;;;13.03;8.07;;;;;;;1.84;77.55;98088.08;249001;1151;22960;-70
2021/01/26 13:08:55;;;;;;;15.13;9.60;;;;;;;1.80;77.94;98086.19;248443;1151;22937;-70
2021/01/26 13:13:57;;;;;;;17.35;9.85;;;;;;;1.64;78.17;98096.58;249287;1151;22932;-73
2021/01/26 13:18:59;;;;;;;17.27;10.30;;;;;;;1.56;78.14;98099.66;249211;1151;23396;-74
2021/01/26 13:24:01;;;;;;;13.93;8.93;;;;;;;1.59;78.29;98093.09;249561;1151;23414;-73
2021/01/26 13:29:03;;;;;;;14.77;9.23;;;;;;;1.64;77.94;98101.86;249084;1151;26395;-73
2021/01/26 13:34:06;;;;;;;13.10;8.00;;;;;;;1.61;77.80;98106.83;249084;1151;22942;-70
2021/01/26 13:39:08;;;;;;;8.77;6.13;;;;;;;1.51;77.56;98095.13;249010;1151;23149;-73
2021/01/26 13:44:10;;;;;;;9.33;5.47;;;;;;;1.51;77.29;98104.86;249109;1151;22943;-73
2021/01/26 13:49:12;;;;;;;13.20;8.15;;;;;;;1.60;77.73;98103.40;249169;1151;22910;-73
2021/01/26 13:54:15;;;;;;;10.23;7.10;;;;;;;1.68;77.98;98105.61;249403;1151;22985;-71
2021/01/26 13:59:17;;;;;;;12.37;7.63;;;;;;;1.67;78.31;98108.50;249508;1151;22942;-71
2021/01/26 14:04:19;;;;;;;11.95;7.35;;;;;;;1.52;77.28;98093.27;250049;1151;23389;-71
2021/01/26 14:09:24;;;;;;;12.70;7.33;;;;;;;1.47;77.29;98099.29;249191;1151;25986;-70
2021/01/26 14:14:26;;;;;;;15.40;7.60;;;;;;;1.36;77.34;98105.48;249013;1151;22961;-71
2021/01/26 14:19:29;;;;;;;15.63;8.63;;;;;;;1.34;77.69;98097.00;249277;1151;23013;-71
2021/01/26 14:24:32;;;;;;;16.85;9.10;;;;;;;1.28;78.37;98108.55;250227;1151;22921;-71
2021/01/26 14:29:34;;;;;;;10.13;6.43;;;;;;;1.29;78.01;98104.88;250439;1151;23044;-79
